Time;durP1;ratioP1;P1;durP2;ratioP2;P2;SDS_P1;SDS_P2;PMS_P1;PMS_P2;Temp;Humidity;BMP_temperature;BMP_pressure;BME280_temperature;BME280_humidity;BME280_pressure;Samples;Min_cycle;Max_cycle;Signal;HPM_P1;HPM_P2
2022/03/23 05:00:16;;;;;;;21.63;14.10;;;1.60;99.90;;;;;;5945369;23;20193;31
2022/03/23 05:02:43;;;;;;;23.48;15.05;;;1.60;99.90;;;;;;4930779;29;20233;-69
2022/03/23 05:05:11;;;;;;;19.58;14.13;;;1.60;99.90;;;;;;4934347;29;20697;-73
2022/03/23 05:07:38;;;;;;;22.45;14.73;;;1.60;99.90;;;;;;4934632;29;20294;-67
2022/03/23 05:10:07;;;;;;;23.35;14.63;;;1.60;99.90;;;;;;4934866;29;20244;-69
2022/03/23 05:12:33;;;;;;;24.05;14.05;;;1.60;99.90;;;;;;4934420;29;20225;-69
2022/03/23 05:15:00;;;;;;;23.70;14.55;;;1.60;99.90;;;;;;4935144;29;20662;-71
2022/03/23 05:17:28;;;;;;;17.75;13.15;;;1.60;99.90;;;;;;4934221;29;20273;-69
2022/03/23 05:19:55;;;;;;;22.52;15.05;;;1.50;99.90;;;;;;4934143;29;20549;-69
2022/03/23 05:22:21;;;;;;;25.25;15.95;;;1.60;99.90;;;;;;4934185;29;20662;-67
2022/03/23 05:24:48;;;;;;;25.58;15.27;;;1.50;99.90;;;;;;4934795;29;20212;-67
2022/03/23 05:27:15;;;;;;;20.77;13.50;;;1.60;99.90;;;;;;4932989;29;20655;-68
2022/03/23 05:29:43;;;;;;;22.65;15.30;;;1.60;99.90;;;;;;4932939;29;20206;-68
2022/03/23 05:32:16;;;;;;;26.02;15.73;;;1.60;99.90;;;;;;4934024;29;20699;-67
2022/03/23 05:34:44;;;;;;;19.20;13.85;;;1.60;99.90;;;;;;4934209;29;20205;-67
2022/03/23 05:37:11;;;;;;;22.73;14.15;;;1.70;99.90;;;;;;4934445;29;20198;-69
2022/03/23 05:39:38;;;;;;;23.05;15.45;;;1.70;99.90;;;;;;4933755;29;20218;-68
2022/03/23 05:42:07;;;;;;;26.20;16.80;;;1.70;99.90;;;;;;4933766;29;20253;-71
2022/03/23 05:44:34;;;;;;;26.65;16.63;;;1.80;99.90;;;;;;4932520;29;20303;-68
2022/03/23 05:47:01;;;;;;;27.15;15.27;;;1.80;99.90;;;;;;4934274;29;20621;-68
2022/03/23 05:49:28;;;;;;;27.60;16.77;;;1.90;99.90;;;;;;4933947;29;20210;-69
2022/03/23 05:51:56;;;;;;;24.15;15.68;;;1.90;99.90;;;;;;4933737;29;20230;-69
2022/03/23 05:54:23;;;;;;;25.83;15.65;;;1.90;99.90;;;;;;4934319;29;20206;-68
2022/03/23 05:56:50;;;;;;;23.05;14.93;;;2.00;99.90;;;;;;4933237;29;20210;-67
2022/03/23 05:59:17;;;;;;;23.48;15.95;;;2.00;99.90;;;;;;4933529;29;20224;-67
2022/03/23 06:01:47;;;;;;;23.83;13.40;;;2.10;99.90;;;;;;4915222;29;20250;-68
2022/03/23 06:04:15;;;;;;;27.55;16.63;;;2.10;99.90;;;;;;4930863;29;20228;-68
2022/03/23 06:06:42;;;;;;;23.20;15.02;;;2.20;99.90;;;;;;4934292;29;20247;-69
2022/03/23 06:09:12;;;;;;;23.40;13.88;;;2.20;99.90;;;;;;4934804;29;20260;-68
2022/03/23 06:11:39;;;;;;;26.00;16.70;;;2.30;99.90;;;;;;4934238;29;20285;-67
2022/03/23 06:14:06;;;;;;;25.50;15.27;;;2.30;99.90;;;;;;4934930;29;20224;-68
2022/03/23 06:16:32;;;;;;;24.67;15.43;;;2.40;99.90;;;;;;4934465;29;20214;-67
2022/03/23 06:19:00;;;;;;;21.10;16.00;;;2.40;99.90;;;;;;4934799;29;20202;-67
2022/03/23 06:21:27;;;;;;;24.00;15.48;;;2.50;99.90;;;;;;4933966;29;20244;-67
2022/03/23 06:23:53;;;;;;;24.23;16.40;;;2.60;99.90;;;;;;4933717;28;20597;-67
2022/03/23 06:26:21;;;;;;;26.90;16.58;;;2.70;99.90;;;;;;4933979;29;20573;-68
2022/03/23 06:28:48;;;;;;;22.42;14.60;;;2.80;99.90;;;;;;4934000;29;20630;-68
2022/03/23 06:31:15;;;;;;;30.25;16.13;;;2.80;99.90;;;;;;4933936;29;20229;-68
2022/03/23 06:33:41;;;;;;;23.08;16.48;;;2.90;99.90;;;;;;4933786;28;20335;-67
2022/03/23 06:36:08;;;;;;;25.63;17.45;;;3.00;99.90;;;;;;4933061;29;20241;-69
2022/03/23 06:38:35;;;;;;;38.40;23.65;;;3.10;99.90;;;;;;4933942;29;20304;-67
2022/03/23 06:41:01;;;;;;;65.45;32.45;;;3.10;99.90;;;;;;4933220;29;20320;-68
2022/03/23 06:43:29;;;;;;;169.70;79.78;;;3.20;99.90;;;;;;4933589;29;20287;-67
2022/03/23 06:45:56;;;;;;;100.13;49.08;;;3.30;99.90;;;;;;4933437;29;20245;-68
2022/03/23 06:48:23;;;;;;;65.47;31.98;;;3.40;99.90;;;;;;4933327;29;20663;-69
2022/03/23 06:50:49;;;;;;;107.75;55.47;;;3.50;99.90;;;;;;4932867;29;20746;-68
2022/03/23 06:53:16;;;;;;;59.92;31.08;;;3.50;99.90;;;;;;4933224;29;20217;-68
2022/03/23 06:55:43;;;;;;;33.83;20.92;;;3.60;99.90;;;;;;4933261;29;20614;-71
2022/03/23 06:58:09;;;;;;;31.25;17.15;;;3.70;99.90;;;;;;4933654;29;20312;-69
2022/03/23 07:00:38;;;;;;;31.73;19.33;;;3.80;99.90;;;;;;4932995;29;20240;-68
2022/03/23 07:03:05;;;;;;;24.98;16.80;;;3.90;99.90;;;;;;4933269;29;20253;-68
2022/03/23 07:05:33;;;;;;;27.38;19.08;;;3.90;99.90;;;;;;4933601;29;20214;-71
2022/03/23 07:10:44;;;;;;;24.42;16.35;;;4.20;99.90;;;;;;4919256;29;20330;-68
2022/03/23 07:13:13;;;;;;;25.17;17.58;;;4.30;99.90;;;;;;4923520;29;20678;-67
2022/03/23 07:15:43;;;;;;;31.75;20.02;;;4.40;99.90;;;;;;4937078;29;20229;-69
2022/03/23 07:18:10;;;;;;;34.08;20.25;;;4.50;99.90;;;;;;4934602;29;20296;-68
2022/03/23 07:20:37;;;;;;;25.80;18.50;;;4.60;99.90;;;;;;4934391;29;20312;-67
2022/03/23 07:23:03;;;;;;;26.80;18.77;;;4.60;99.90;;;;;;4936162;29;20299;-71
2022/03/23 07:25:30;;;;;;;29.15;19.52;;;4.70;99.90;;;;;;4935749;29;20670;-71
2022/03/23 07:27:57;;;;;;;29.40;19.90;;;4.90;99.90;;;;;;4934748;29;20581;-68
2022/03/23 07:30:26;;;;;;;28.42;18.77;;;5.00;99.90;;;;;;4936323;29;20202;-69
2022/03/23 07:32:54;;;;;;;29.52;19.30;;;5.10;99.90;;;;;;4936515;29;20557;-68
2022/03/23 07:35:21;;;;;;;26.70;18.42;;;5.20;99.90;;;;;;4935843;29;20210;-66
2022/03/23 07:37:48;;;;;;;27.13;18.75;;;5.40;99.90;;;;;;4936277;29;20206;-68
2022/03/23 07:40:15;;;;;;;25.05;19.10;;;5.50;99.90;;;;;;4936485;29;20659;-69
2022/03/23 07:42:41;;;;;;;25.60;18.40;;;5.70;99.90;;;;;;4936102;29;20210;-66
2022/03/23 07:45:09;;;;;;;25.63;18.13;;;5.80;99.90;;;;;;4936211;29;20214;-68
2022/03/23 07:47:36;;;;;;;28.70;18.17;;;5.90;99.90;;;;;;4948332;23;20233;-66
2022/03/23 07:50:05;;;;;;;25.23;18.23;;;6.10;99.90;;;;;;4925297;29;20206;-67
2022/03/23 07:52:32;;;;;;;29.88;18.60;;;6.20;99.90;;;;;;4918228;29;20222;-68
2022/03/23 07:55:00;;;;;;;22.83;17.58;;;6.40;99.90;;;;;;4915111;29;20204;-67
2022/03/23 07:57:26;;;;;;;23.15;17.23;;;6.50;99.90;;;;;;4918475;29;20226;-67
2022/03/23 07:59:55;;;;;;;28.25;17.70;;;6.60;99.90;;;;;;4913229;29;20215;-67
2022/03/23 08:02:21;;;;;;;30.17;18.73;;;6.70;99.90;;;;;;4915263;29;20211;-66
2022/03/23 08:04:48;;;;;;;26.50;17.67;;;6.80;99.90;;;;;;4917065;29;20234;-67
2022/03/23 08:07:16;;;;;;;23.10;17.95;;;6.90;99.90;;;;;;4917297;29;20222;-68
2022/03/23 08:09:43;;;;;;;26.90;19.35;;;7.00;99.90;;;;;;4912809;29;20254;-69
2022/03/23 08:12:10;;;;;;;24.77;18.52;;;7.10;99.90;;;;;;4910229;29;20264;-66
2022/03/23 08:14:36;;;;;;;30.70;18.52;;;7.30;99.90;;;;;;4905794;29;20237;-67
2022/03/23 08:17:03;;;;;;;25.98;18.85;;;7.30;99.90;;;;;;4916636;29;20231;-67
2022/03/23 08:19:30;;;;;;;28.55;17.83;;;7.40;99.90;;;;;;4920114;29;20209;-66
2022/03/23 08:21:57;;;;;;;26.17;18.45;;;7.50;99.90;;;;;;4910765;29;20207;-67
2022/03/23 08:24:24;;;;;;;29.38;19.40;;;7.70;99.90;;;;;;4919897;29;20336;-67
2022/03/23 08:26:51;;;;;;;26.58;17.77;;;7.80;99.90;;;;;;4914178;29;20373;-67
2022/03/23 08:29:18;;;;;;;27.08;17.83;;;7.90;99.90;;;;;;4904608;29;20649;-67
2022/03/23 08:31:44;;;;;;;25.15;17.75;;;8.10;99.90;;;;;;4902266;29;20350;-66
2022/03/23 08:34:11;;;;;;;22.25;17.25;;;8.30;99.90;;;;;;4913389;29;20250;-67
2022/03/23 08:36:39;;;;;;;26.38;17.95;;;8.40;99.90;;;;;;4916230;29;20233;-67
2022/03/23 08:39:06;;;;;;;27.48;17.73;;;8.50;99.90;;;;;;4915254;29;20208;-67
2022/03/23 08:41:34;;;;;;;20.83;17.90;;;8.70;99.90;;;;;;4910406;29;20215;-67
2022/03/23 08:44:00;;;;;;;26.88;18.27;;;8.80;99.90;;;;;;4910256;29;20239;-67
2022/03/23 08:46:27;;;;;;;21.30;16.90;;;9.00;99.90;;;;;;4905531;29;20302;-67
2022/03/23 08:48:54;;;;;;;20.67;15.45;;;9.20;99.90;;;;;;4915504;29;20207;-67
2022/03/23 08:51:21;;;;;;;20.60;17.40;;;9.40;99.90;;;;;;4913025;29;20218;-68
2022/03/23 08:53:48;;;;;;;23.33;16.50;;;9.60;99.90;;;;;;4930907;29;20268;-68
2022/03/23 08:56:14;;;;;;;21.23;16.20;;;9.80;99.90;;;;;;4914837;29;20690;-68
2022/03/23 08:58:47;;;;;;;24.35;18.27;;;9.90;99.90;;;;;;4913827;29;20207;-68
2022/03/23 09:01:15;;;;;;;27.58;17.95;;;10.00;99.90;;;;;;4912489;29;20214;-68
2022/03/23 09:03:42;;;;;;;24.60;17.85;;;10.20;99.90;;;;;;4915828;29;20231;-68
2022/03/23 09:06:09;;;;;;;23.77;16.95;;;10.20;99.90;;;;;;4916318;29;20237;-67
2022/03/23 09:08:36;;;;;;;24.15;17.83;;;10.40;99.90;;;;;;4916064;29;20214;-68
2022/03/23 09:11:04;;;;;;;24.02;18.35;;;10.50;99.80;;;;;;4915095;29;20604;-67
2022/03/23 09:13:30;;;;;;;22.60;18.35;;;10.50;99.40;;;;;;4916163;29;20596;-67
2022/03/23 09:15:58;;;;;;;22.17;16.65;;;10.60;99.50;;;;;;4915611;29;20218;-67
2022/03/23 09:18:26;;;;;;;20.35;14.68;;;10.70;98.30;;;;;;4916060;29;20267;-68
2022/03/23 09:20:52;;;;;;;16.85;15.00;;;10.90;96.20;;;;;;4914905;29;20301;-67
2022/03/23 09:23:19;;;;;;;20.33;15.95;;;11.20;95.40;;;;;;4915622;29;20210;-67
2022/03/23 09:25:46;;;;;;;19.83;16.02;;;11.40;94.70;;;;;;4915359;29;20302;-67
2022/03/23 09:28:13;;;;;;;18.70;14.75;;;11.50;94.60;;;;;;4915838;29;20282;-67
2022/03/23 09:30:39;;;;;;;16.05;14.35;;;11.70;93.40;;;;;;4915246;29;20207;-68
2022/03/23 09:33:08;;;;;;;19.20;14.48;;;11.80;93.60;;;;;;4915806;29;20219;-68
2022/03/23 09:35:34;;;;;;;15.85;13.95;;;11.90;91.90;;;;;;4914928;29;20717;-68
2022/03/23 09:38:03;;;;;;;21.33;14.30;;;12.10;91.80;;;;;;4915054;29;20658;-68
2022/03/23 09:40:32;;;;;;;20.57;14.57;;;12.30;91.10;;;;;;4914671;29;20470;-68
2022/03/23 09:42:59;;;;;;;19.10;14.60;;;12.60;90.50;;;;;;4915626;29;20470;-67
2022/03/23 09:45:38;;;;;;;15.97;14.27;;;12.60;90.80;;;;;;4915568;29;20907;-68
2022/03/23 09:48:09;;;;;;;18.00;14.30;;;12.60;89.70;;;;;;4915258;29;20498;-68
2022/03/23 09:50:37;;;;;;;16.30;13.30;;;12.80;86.60;;;;;;4914163;29;20470;-68
2022/03/23 09:53:05;;;;;;;20.50;15.23;;;12.90;87.40;;;;;;4915378;29;20521;-68
2022/03/23 09:55:32;;;;;;;17.37;13.53;;;13.10;87.70;;;;;;4914028;29;20522;-67
2022/03/23 09:58:02;;;;;;;17.03;15.20;;;13.30;84.30;;;;;;4926491;29;20909;-68
2022/03/23 10:00:35;;;;;;;18.63;14.90;;;13.40;84.70;;;;;;4933364;29;20528;-66
2022/03/23 10:04:05;;;;;;;17.80;14.57;;;13.40;84.40;;;;;;4933996;29;20461;-67
2022/03/23 10:07:05;;;;;;;19.30;14.23;;;13.50;83.50;;;;;;4933900;29;20955;-66
2022/03/23 10:10:24;;;;;;;14.87;13.23;;;13.60;79.70;;;;;;4928918;29;20470;-67
2022/03/23 10:13:40;;;;;;;19.60;15.80;;;13.70;80.00;;;;;;4915001;29;20522;-67
2022/03/23 10:16:53;;;;;;;21.53;15.10;;;13.90;78.80;;;;;;4914930;29;20479;-67
2022/03/23 10:19:21;;;;;;;15.63;12.40;;;14.00;76.10;;;;;;4914584;29;20888;-67
2022/03/23 10:21:49;;;;;;;17.50;13.37;;;14.10;75.20;;;;;;4910538;29;20539;-67
2022/03/23 10:24:32;;;;;;;16.07;12.20;;;14.10;73.40;;;;;;4914723;29;20490;-67
2022/03/23 10:27:02;;;;;;;15.03;12.53;;;14.30;73.50;;;;;;4914347;29;20490;-66
2022/03/23 10:29:30;;;;;;;13.77;12.37;;;14.30;72.60;;;;;;4914753;29;20470;-67
2022/03/23 10:32:01;;;;;;;17.40;13.23;;;14.40;72.60;;;;;;4914163;29;20470;-68
2022/03/23 10:34:48;;;;;;;14.80;12.73;;;14.40;73.50;;;;;;4914275;29;20470;-69
2022/03/23 10:37:23;;;;;;;19.87;13.63;;;14.50;72.30;;;;;;4914747;29;21007;-69
2022/03/23 10:39:50;;;;;;;14.80;13.30;;;14.50;71.30;;;;;;4914159;29;20529;-69
2022/03/23 10:42:18;;;;;;;16.30;12.67;;;14.60;71.70;;;;;;4914038;29;20466;-68
2022/03/23 10:44:46;;;;;;;14.60;12.10;;;14.60;70.60;;;;;;4913846;29;20570;-68
2022/03/23 10:47:25;;;;;;;16.23;13.90;;;14.60;70.60;;;;;;4914475;29;20557;-69
2022/03/23 10:49:53;;;;;;;13.93;12.00;;;14.70;72.10;;;;;;4913418;29;21240;-68
2022/03/23 10:52:21;;;;;;;16.77;12.43;;;14.80;69.70;;;;;;4914259;29;20466;-68
2022/03/23 10:54:59;;;;;;;16.67;13.13;;;14.80;69.30;;;;;;4914359;29;20882;-68
2022/03/23 10:57:51;;;;;;;16.20;12.87;;;14.90;69.80;;;;;;4913770;29;20497;-68
2022/03/23 11:00:26;;;;;;;15.37;13.20;;;15.00;69.20;;;;;;4919637;29;20474;-67
2022/03/23 11:02:53;;;;;;;13.33;11.03;;;15.10;67.80;;;;;;4915062;29;20522;-68
2022/03/23 11:05:32;;;;;;;14.70;13.33;;;15.10;67.10;;;;;;4917438;29;21007;-68
2022/03/23 11:08:08;;;;;;;13.17;11.33;;;15.20;67.40;;;;;;4914652;29;20894;-66
2022/03/23 11:16:07;;;;;;;15.80;12.27;;;15.40;64.80;;;;;;4910965;29;20587;-69
2022/03/23 11:18:34;;;;;;;15.03;11.90;;;15.50;67.90;;;;;;4914041;29;20825;-68
2022/03/23 11:21:02;;;;;;;13.30;11.87;;;15.50;67.30;;;;;;4913502;29;20474;-68
2022/03/23 11:23:31;;;;;;;16.63;13.70;;;15.50;67.50;;;;;;4915906;29;20467;-68
2022/03/23 11:25:59;;;;;;;17.50;12.63;;;15.50;70.10;;;;;;4916968;29;20486;-68
2022/03/23 11:28:28;;;;;;;12.90;11.23;;;15.50;70.10;;;;;;4917023;29;20812;-67
2022/03/23 11:30:56;;;;;;;17.30;13.50;;;15.50;68.70;;;;;;4912617;29;20550;-68
2022/03/23 11:33:25;;;;;;;21.70;13.93;;;15.50;71.50;;;;;;4914453;29;20458;-68
2022/03/23 11:35:53;;;;;;;22.30;15.27;;;15.60;73.60;;;;;;4913993;29;20673;-68
2022/03/23 11:38:25;;;;;;;19.90;15.07;;;15.70;75.10;;;;;;4913530;29;20489;-68
2022/03/23 11:40:53;;;;;;;18.27;13.97;;;15.70;75.50;;;;;;4894859;29;20468;-68
2022/03/23 11:43:22;;;;;;;17.63;14.63;;;15.70;75.70;;;;;;4906912;29;20959;-68
2022/03/23 11:45:50;;;;;;;20.20;14.60;;;15.70;76.20;;;;;;4914040;29;20575;-68
2022/03/23 11:48:34;;;;;;;19.67;14.10;;;15.70;77.90;;;;;;4912714;29;20581;-67
2022/03/23 11:51:16;;;;;;;21.43;15.73;;;15.70;78.30;;;;;;4908471;29;20471;-67
2022/03/23 11:54:02;;;;;;;25.00;15.00;;;15.80;77.90;;;;;;4919078;29;20900;-67
2022/03/23 11:56:36;;;;;;;21.37;15.93;;;15.80;77.60;;;;;;4931079;29;20485;-67
2022/03/23 11:59:19;;;;;;;21.70;13.80;;;15.80;77.60;;;;;;4923616;29;20901;-67
2022/03/23 12:01:46;;;;;;;22.83;14.87;;;15.90;79.10;;;;;;4914331;29;20556;-67
2022/03/23 12:04:16;;;;;;;18.10;15.40;;;16.00;78.90;;;;;;4928190;29;20499;-67
2022/03/23 12:06:44;;;;;;;21.07;16.70;;;16.00;78.60;;;;;;4925850;29;20481;-66
2022/03/23 12:09:34;;;;;;;20.90;16.27;;;16.00;78.40;;;;;;4916041;29;20470;-66
2022/03/23 12:12:01;;;;;;;19.60;14.70;;;16.00;78.70;;;;;;4923289;29;20536;-68
2022/03/23 12:14:30;;;;;;;21.90;15.43;;;16.10;79.30;;;;;;4927626;29;20458;-67
2022/03/23 12:17:08;;;;;;;22.13;15.57;;;16.10;78.70;;;;;;4925035;29;20512;-67
2022/03/23 12:20:05;;;;;;;18.47;15.20;;;16.10;78.10;;;;;;4916319;29;20494;-67
2022/03/23 12:23:22;;;;;;;22.50;15.43;;;16.10;78.30;;;;;;4918603;29;20466;-67
2022/03/23 12:26:08;;;;;;;20.80;15.40;;;16.10;78.00;;;;;;4910413;29;20501;-68
2022/03/23 12:28:40;;;;;;;24.40;17.73;;;16.00;78.20;;;;;;4926107;29;20470;-67
2022/03/23 12:31:17;;;;;;;19.00;15.00;;;16.00;78.30;;;;;;4916404;29;20501;-67
2022/03/23 12:34:07;;;;;;;22.37;16.80;;;16.00;78.40;;;;;;4917744;29;20517;-68
2022/03/23 12:39:34;;;;;;;25.37;15.33;;;16.20;77.50;;;;;;4895759;29;20458;-68
2022/03/23 12:42:16;;;;;;;23.30;15.20;;;16.20;78.20;;;;;;4911195;29;20546;-68
2022/03/23 12:44:45;;;;;;;19.60;15.20;;;16.30;77.70;;;;;;4903418;29;21009;-68
2022/03/23 12:47:15;;;;;;;22.10;16.27;;;16.30;78.20;;;;;;4916589;29;21047;-70
2022/03/23 12:58:08;;;;;;;17.03;11.47;;;16.40;77.50;;;;;;4917171;29;20574;-68
2022/03/23 13:00:40;;;;;;;19.10;14.90;;;16.50;74.10;;;;;;4916424;29;20466;-68
2022/03/23 13:03:48;;;;;;;17.63;12.03;;;16.50;74.70;;;;;;4904045;29;20467;-68
2022/03/23 13:06:16;;;;;;;19.50;13.17;;;16.50;74.80;;;;;;4905202;29;20490;-68
2022/03/23 13:08:47;;;;;;;20.27;13.17;;;16.50;74.40;;;;;;4906736;29;20466;-68
2022/03/23 13:11:16;;;;;;;15.27;12.63;;;16.60;74.20;;;;;;4908631;29;20479;-68
2022/03/23 13:13:50;;;;;;;16.33;12.27;;;16.60;73.60;;;;;;4918335;29;20502;-68
2022/03/23 13:16:19;;;;;;;21.97;13.57;;;16.60;72.80;;;;;;4919376;29;20859;-67
2022/03/23 13:18:46;;;;;;;21.17;15.43;;;16.60;73.20;;;;;;4915271;29;20669;-69
2022/03/23 13:21:16;;;;;;;20.87;14.43;;;16.60;73.50;;;;;;4915596;29;20530;-68
2022/03/23 13:23:45;;;;;;;23.30;15.60;;;16.60;73.40;;;;;;4906223;29;20499;-69
2022/03/23 13:26:13;;;;;;;21.70;14.03;;;16.60;73.70;;;;;;4911230;29;20555;-67
2022/03/23 13:28:43;;;;;;;19.00;14.80;;;16.70;73.80;;;;;;4915740;29;20498;-68
2022/03/23 13:31:12;;;;;;;21.70;16.30;;;16.60;74.20;;;;;;4914615;29;20539;-70
2022/03/23 13:33:42;;;;;;;26.10;16.90;;;16.60;74.50;;;;;;4921016;29;20471;-69
2022/03/23 13:36:10;;;;;;;19.00;15.30;;;16.60;75.10;;;;;;4927561;29;20836;-69
2022/03/23 13:38:39;;;;;;;21.77;14.73;;;16.70;75.30;;;;;;4914681;29;20473;-69
2022/03/23 13:43:54;;;;;;;15.13;12.37;;;16.70;73.70;;;;;;4915016;29;20453;-69
2022/03/23 13:46:24;;;;;;;18.37;12.53;;;16.70;74.00;;;;;;4911674;29;20498;-69
2022/03/23 13:48:58;;;;;;;21.70;13.63;;;16.70;74.20;;;;;;4914064;29;20999;-68
2022/03/23 13:51:27;;;;;;;21.63;13.80;;;16.70;73.60;;;;;;4914486;29;20470;-68
2022/03/23 13:53:58;;;;;;;20.30;13.17;;;16.80;74.20;;;;;;4914245;29;20811;-68
2022/03/23 13:56:26;;;;;;;16.80;12.23;;;16.70;74.60;;;;;;4914118;29;20486;-68
2022/03/23 13:58:53;;;;;;;20.37;12.93;;;16.70;74.10;;;;;;4913871;29;20470;-68
2022/03/23 14:01:22;;;;;;;14.87;11.90;;;16.70;74.70;;;;;;4916050;29;20462;-68
2022/03/23 14:03:50;;;;;;;16.53;12.13;;;16.70;74.50;;;;;;4909970;29;20471;-69
2022/03/23 14:06:18;;;;;;;17.23;13.90;;;16.70;73.80;;;;;;4909352;29;20621;-69
2022/03/23 14:08:51;;;;;;;19.57;13.57;;;16.70;74.10;;;;;;4915422;29;21017;-69
2022/03/23 14:11:19;;;;;;;18.03;12.60;;;16.70;74.00;;;;;;4913748;29;20474;-68
2022/03/23 14:13:51;;;;;;;17.10;10.60;;;16.70;74.50;;;;;;4909024;29;20478;-68
2022/03/23 14:16:23;;;;;;;19.87;10.73;;;16.80;74.30;;;;;;4914291;29;20968;-68
2022/03/23 14:18:50;;;;;;;14.20;9.70;;;16.80;73.10;;;;;;4906902;29;20542;-68
2022/03/23 14:21:20;;;;;;;17.20;11.20;;;16.90;72.10;;;;;;4914026;29;20914;-69
2022/03/23 14:23:47;;;;;;;18.00;11.30;;;16.80;71.90;;;;;;4916806;29;20549;-69
2022/03/23 14:26:32;;;;;;;18.00;11.50;;;16.80;71.90;;;;;;4916164;29;20501;-68
2022/03/23 14:29:00;;;;;;;16.80;12.83;;;16.80;72.40;;;;;;4908661;29;20463;-69
2022/03/23 14:31:28;;;;;;;22.17;13.73;;;16.80;73.50;;;;;;4914342;29;20565;-69
2022/03/23 14:34:02;;;;;;;17.60;13.37;;;16.80;74.20;;;;;;4915014;29;20466;-69
2022/03/23 14:36:30;;;;;;;17.03;12.40;;;16.80;75.00;;;;;;4921111;29;20485;-69
2022/03/23 14:38:57;;;;;;;21.73;11.53;;;16.80;75.50;;;;;;4910447;29;20477;-69
2022/03/23 14:41:27;;;;;;;24.03;13.83;;;16.80;75.30;;;;;;4913821;29;20466;-69
2022/03/23 14:43:54;;;;;;;21.17;11.50;;;16.80;74.50;;;;;;4913391;29;20466;-69
2022/03/23 14:46:23;;;;;;;19.33;10.90;;;16.80;73.50;;;;;;4914426;29;20906;-68
2022/03/23 14:49:07;;;;;;;20.67;11.90;;;16.70;73.70;;;;;;4914829;29;20542;-68
2022/03/23 14:51:35;;;;;;;14.40;11.13;;;16.70;74.00;;;;;;4914733;29;20475;-68
2022/03/23 14:54:02;;;;;;;18.80;12.43;;;16.80;74.50;;;;;;4915573;29;20569;-69
2022/03/23 14:56:29;;;;;;;16.67;12.30;;;16.70;73.40;;;;;;4914528;29;20482;-69
2022/03/23 14:58:57;;;;;;;21.00;14.53;;;16.70;75.30;;;;;;4903864;29;20832;-69
2022/03/23 15:01:24;;;;;;;19.67;13.47;;;16.70;75.50;;;;;;4897560;29;20558;-71
2022/03/23 15:03:51;;;;;;;19.60;11.97;;;16.60;74.80;;;;;;4904892;29;20471;-69
2022/03/23 15:14:32;;;;;;;23.50;15.03;;;16.60;76.00;;;;;;4927094;29;20462;-69
2022/03/23 15:16:59;;;;;;;19.03;13.57;;;16.60;77.90;;;;;;4925693;29;20482;-68
2022/03/23 15:19:26;;;;;;;23.47;15.70;;;16.50;78.20;;;;;;4915416;29;20466;-68
2022/03/23 15:21:54;;;;;;;17.70;12.97;;;16.50;78.40;;;;;;4914798;29;20467;-68
2022/03/23 15:24:21;;;;;;;16.87;14.37;;;16.40;78.60;;;;;;4915180;29;20470;-69
2022/03/23 15:26:50;;;;;;;20.97;14.00;;;16.40;78.90;;;;;;4914877;29;20538;-68
2022/03/23 15:29:18;;;;;;;22.43;15.90;;;16.40;79.10;;;;;;4914461;29;20478;-69
2022/03/23 15:31:44;;;;;;;22.10;16.27;;;16.30;79.20;;;;;;4916958;29;20462;-69
2022/03/23 15:34:11;;;;;;;21.50;16.23;;;16.30;79.60;;;;;;4917421;29;20522;-69
2022/03/23 15:36:38;;;;;;;24.10;15.33;;;16.30;80.00;;;;;;4917874;29;20478;-68
2022/03/23 15:39:07;;;;;;;21.73;15.80;;;16.30;80.10;;;;;;4918184;29;20463;-68
2022/03/23 15:41:34;;;;;;;23.50;15.53;;;16.30;80.60;;;;;;4916842;29;20467;-68
2022/03/23 15:44:05;;;;;;;21.10;15.23;;;16.30;80.60;;;;;;4918328;29;20498;-69
2022/03/23 15:46:33;;;;;;;22.93;15.00;;;16.30;80.50;;;;;;4917266;29;20498;-69
2022/03/23 15:48:59;;;;;;;20.90;14.47;;;16.20;79.50;;;;;;4916648;29;20470;-69
2022/03/23 15:51:27;;;;;;;26.20;14.67;;;16.20;80.10;;;;;;4917136;29;20470;-70
2022/03/23 15:53:54;;;;;;;22.00;15.97;;;16.20;80.30;;;;;;4917799;29;20470;-69
2022/03/23 15:56:22;;;;;;;28.20;17.40;;;16.20;81.50;;;;;;4916361;29;21072;-69
2022/03/23 15:58:49;;;;;;;24.60;14.53;;;16.20;81.90;;;;;;4917240;29;20462;-69
2022/03/23 16:01:17;;;;;;;22.03;14.93;;;16.10;82.20;;;;;;4916523;29;20462;-69
2022/03/23 16:03:45;;;;;;;33.33;14.07;;;16.00;81.80;;;;;;4917962;29;20474;-69
2022/03/23 16:06:12;;;;;;;21.40;14.97;;;16.00;82.10;;;;;;4918336;29;20534;-68
2022/03/23 16:08:39;;;;;;;24.40;14.67;;;16.00;82.00;;;;;;4920866;29;20471;-69
2022/03/23 16:11:06;;;;;;;21.43;14.40;;;15.90;81.70;;;;;;4921232;29;20470;-70
2022/03/23 16:13:34;;;;;;;23.90;15.53;;;15.90;82.10;;;;;;4920541;29;20872;-70
2022/03/23 16:16:01;;;;;;;23.03;15.73;;;15.90;82.40;;;;;;4918303;29;20478;-70
2022/03/23 16:18:28;;;;;;;21.43;15.67;;;15.90;82.50;;;;;;4913531;29;21006;-69
2022/03/23 16:20:57;;;;;;;21.13;15.70;;;15.80;81.90;;;;;;4918619;29;20462;-69
2022/03/23 16:23:24;;;;;;;21.30;16.17;;;15.80;81.60;;;;;;4916591;29;20617;-68
2022/03/23 16:25:52;;;;;;;23.33;16.47;;;15.80;81.80;;;;;;4916306;29;20542;-71
2022/03/23 16:28:19;;;;;;;26.97;15.47;;;15.80;81.70;;;;;;4915698;29;20485;-69
2022/03/23 16:30:47;;;;;;;17.53;14.53;;;15.70;81.70;;;;;;4916385;29;20474;-71
2022/03/23 16:33:17;;;;;;;20.67;15.60;;;15.60;81.10;;;;;;4917130;29;20470;-70
2022/03/23 16:35:45;;;;;;;21.43;14.73;;;15.60;80.80;;;;;;4916105;29;20465;-69
2022/03/23 16:38:12;;;;;;;23.60;14.43;;;15.60;80.70;;;;;;4912830;29;20482;-70
2022/03/23 16:40:39;;;;;;;20.50;13.07;;;15.50;80.30;;;;;;4919623;29;20477;-71
2022/03/23 16:43:07;;;;;;;20.27;13.80;;;15.50;80.80;;;;;;4918519;29;20475;-69
2022/03/23 16:45:35;;;;;;;20.30;13.80;;;15.40;81.10;;;;;;4909821;29;21013;-69
2022/03/23 16:48:03;;;;;;;25.20;15.70;;;15.30;81.40;;;;;;4922593;29;20501;-68
2022/03/23 16:50:29;;;;;;;30.07;16.20;;;15.30;82.50;;;;;;4916627;29;20462;-69
2022/03/23 16:52:59;;;;;;;25.80;17.47;;;15.30;83.80;;;;;;4921555;29;20501;-69
2022/03/23 16:55:26;;;;;;;20.97;16.53;;;15.20;84.70;;;;;;4925228;29;20469;-70
2022/03/23 16:57:54;;;;;;;25.03;16.87;;;15.10;85.90;;;;;;4915373;29;20991;-70
2022/03/23 17:00:21;;;;;;;23.07;16.07;;;15.10;86.50;;;;;;4925014;29;20465;-70
2022/03/23 17:13:43;;;;;;;27.87;17.17;;;14.80;90.10;;;;;;4920969;29;20450;-68
2022/03/23 17:16:14;;;;;;;29.40;18.97;;;14.70;90.50;;;;;;4922037;29;20506;-70
2022/03/23 17:18:41;;;;;;;27.03;19.37;;;14.60;90.80;;;;;;4938635;29;20548;-69
2022/03/23 17:21:09;;;;;;;27.10;18.13;;;14.50;91.20;;;;;;4924324;29;20471;-69
2022/03/23 17:23:36;;;;;;;31.73;19.80;;;14.40;91.40;;;;;;4933932;29;20541;-69
2022/03/23 17:26:02;;;;;;;35.40;20.43;;;14.30;91.70;;;;;;4924767;29;20493;-69
2022/03/23 17:28:29;;;;;;;31.53;20.77;;;14.20;92.00;;;;;;4930086;29;20490;-69
2022/03/23 17:30:57;;;;;;;24.53;18.07;;;14.10;92.30;;;;;;4927837;29;20470;-69
2022/03/23 17:33:23;;;;;;;34.73;18.23;;;14.00;92.70;;;;;;4919544;29;20467;-68
2022/03/23 17:35:50;;;;;;;34.63;23.23;;;14.00;93.00;;;;;;4919661;29;20467;-70
2022/03/23 17:38:18;;;;;;;34.90;19.60;;;13.90;93.20;;;;;;4919509;29;20546;-67
2022/03/23 17:40:45;;;;;;;32.20;21.07;;;13.80;93.70;;;;;;4921717;29;20485;-68
2022/03/23 17:43:14;;;;;;;31.00;18.47;;;13.70;93.80;;;;;;4920091;29;20467;-69
2022/03/23 17:45:41;;;;;;;32.77;18.57;;;13.60;94.20;;;;;;4917626;29;20467;-68
2022/03/23 17:48:07;;;;;;;27.83;18.30;;;13.60;94.40;;;;;;4916073;29;20502;-68
2022/03/23 17:50:34;;;;;;;25.97;18.80;;;13.50;94.80;;;;;;4915436;29;20199;-68
2022/03/23 17:53:01;;;;;;;32.03;21.27;;;13.40;95.00;;;;;;4915094;29;20470;-68
2022/03/23 17:55:29;;;;;;;26.43;18.30;;;13.40;95.50;;;;;;4916178;29;20471;-68
2022/03/23 17:57:56;;;;;;;26.80;19.00;;;13.30;96.00;;;;;;4916642;29;21075;-68
2022/03/23 18:00:23;;;;;;;34.75;20.23;;;13.20;96.20;;;;;;4917233;29;20539;-69
2022/03/23 18:02:50;;;;;;;33.70;21.03;;;13.20;96.60;;;;;;4919330;29;20730;-69
2022/03/23 18:05:17;;;;;;;39.03;22.63;;;13.10;97.00;;;;;;4931568;29;20469;-69
2022/03/23 18:07:44;;;;;;;26.87;18.37;;;13.00;97.30;;;;;;4937817;29;20525;-69
2022/03/23 18:10:13;;;;;;;29.53;19.83;;;12.90;97.60;;;;;;4919129;29;20996;-68
2022/03/23 18:12:42;;;;;;;33.38;20.08;;;12.90;98.10;;;;;;4919401;29;20466;-69
2022/03/23 18:15:14;;;;;;;31.08;18.92;;;12.80;98.60;;;;;;4919680;29;20206;-68
2022/03/23 18:17:41;;;;;;;30.67;20.83;;;12.80;99.40;;;;;;4923381;29;20258;-69
2022/03/23 18:20:09;;;;;;;32.50;19.83;;;12.70;99.70;;;;;;4933683;29;20222;-70
2022/03/23 18:22:36;;;;;;;30.95;20.60;;;12.60;99.90;;;;;;4926436;29;20651;-69
2022/03/23 18:25:04;;;;;;;36.37;21.90;;;12.60;99.90;;;;;;4927554;29;20235;-69